Time;durP1;ratioP1;P1;durP2;ratioP2;P2;SDS_P1;SDS_P2;PMS_P1;PMS_P2;Temp;Humidity;BMP_temperature;BMP_pressure;BME280_temperature;BME280_humidity;BME280_pressure;Samples;Min_cycle;Max_cycle;Signal;HPM_P1;HPM_P2
2022/03/03 00:01:34;;;;;;;;;;;;;;;1.83;59.28;100006.44;4440122;32;19989;-79
2022/03/03 00:03:59;;;;;;;;;;;;;;;1.66;59.27;100002.91;4440181;32;19977;-79
2022/03/03 00:06:24;;;;;;;;;;;;;;;1.69;59.26;100008.91;4454163;32;20277;-79
2022/03/03 00:08:50;;;;;;;;;;;;;;;1.44;59.25;100012.97;4454411;32;19977;-79
2022/03/03 00:11:15;;;;;;;;;;;;;;;1.49;59.27;100008.75;4440035;32;19992;-79
2022/03/03 00:13:40;;;;;;;;;;;;;;;1.42;59.26;100013.78;4453771;32;32593;-79
2022/03/03 00:16:05;;;;;;;;;;;;;;;1.45;59.26;100011.28;4454434;32;19979;-79
2022/03/03 00:18:31;;;;;;;;;;;;;;;1.49;59.27;100011.31;4426580;32;31903;-79
2022/03/03 00:20:56;;;;;;;;;;;;;;;1.43;59.26;100011.25;4445047;32;20024;-79
2022/03/03 00:23:21;;;;;;;;;;;;;;;1.50;59.26;99999.34;4452337;32;20442;-79
2022/03/03 00:25:47;;;;;;;;;;;;;;;1.46;59.25;100011.28;4453427;32;34517;-79
2022/03/03 00:28:12;;;;;;;;;;;;;;;1.42;59.26;100006.97;4440007;32;20042;-79
2022/03/03 00:30:37;;;;;;;;;;;;;;;1.38;59.25;100000.06;4454184;32;20018;-79
2022/03/03 00:33:02;;;;;;;;;;;;;;;1.35;59.25;100007.75;4439666;32;21709;-80
2022/03/03 00:35:27;;;;;;;;;;;;;;;1.42;59.26;100006.97;4453604;32;19989;-80
2022/03/03 00:37:53;;;;;;;;;;;;;;;1.12;59.24;100007.53;4424478;32;20021;-79
2022/03/03 00:40:19;;;;;;;;;;;;;;;1.16;59.24;100000.72;4437641;32;31825;-79
2022/03/03 00:42:44;;;;;;;;;;;;;;;1.26;59.25;100009.38;4438736;32;19970;-79
2022/03/03 00:45:09;;;;;;;;;;;;;;;1.23;59.25;100010.22;4438083;32;22696;-79
2022/03/03 00:47:35;;;;;;;;;;;;;;;1.42;59.26;100006.97;4438614;32;19985;-79
2022/03/03 00:50:00;;;;;;;;;;;;;;;1.45;59.26;100007.00;4437160;32;19982;-79
2022/03/03 00:52:25;;;;;;;;;;;;;;;1.36;59.26;99999.22;4436831;32;20041;-79
2022/03/03 00:54:50;;;;;;;;;;;;;;;1.10;59.23;99995.53;4436641;32;32788;-79
2022/03/03 00:57:15;;;;;;;;;;;;;;;1.15;59.24;99992.16;4438592;32;20017;-78
2022/03/03 00:59:41;;;;;;;;;;;;;;;1.10;59.24;99991.28;4436935;32;19981;-79
2022/03/03 01:02:06;;;;;;;;;;;;;;;1.12;59.24;99992.13;4438513;32;19993;-79
2022/03/03 01:04:31;;;;;;;;;;;;;;;1.08;59.24;99992.09;4437056;32;20243;-80
2022/03/03 01:06:56;;;;;;;;;;;;;;;1.16;59.24;99991.31;4438583;32;19982;-79
2022/03/03 01:09:22;;;;;;;;;;;;;;;1.18;59.23;99988.78;4423680;32;21094;-79
2022/03/03 01:11:47;;;;;;;;;;;;;;;1.07;59.24;99985.25;4437208;32;19992;-79
2022/03/03 01:14:12;;;;;;;;;;;;;;;1.09;59.24;99986.13;4437913;32;31997;-79
2022/03/03 01:16:37;;;;;;;;;;;;;;;1.19;59.25;99983.69;4437083;32;21193;-79
2022/03/03 01:19:04;;;;;;;;;;;;;;;0.87;59.22;99983.34;4437477;32;20044;-79
2022/03/03 01:21:30;;;;;;;;;;;;;;;1.00;59.23;99973.22;4438635;32;19973;-79
2022/03/03 01:23:55;;;;;;;;;;;;;;;1.07;59.24;99968.19;4438690;32;19988;-79
2022/03/03 01:26:22;;;;;;;;;;;;;;;1.10;59.24;99964.78;4438466;32;19994;-79
2022/03/03 01:28:48;;;;;;;;;;;;;;;1.10;59.24;99963.06;4437337;32;19997;-79
2022/03/03 01:31:13;;;;;;;;;;;;;;;0.93;59.23;99957.78;4438225;32;20313;-79
2022/03/03 01:33:38;;;;;;;;;;;;;;;1.07;59.24;99957.91;4438474;32;20004;-79
2022/03/03 01:36:03;;;;;;;;;;;;;;;0.99;59.23;99957.00;4423263;32;32449;-79
2022/03/03 01:38:29;;;;;;;;;;;;;;;0.77;59.22;99965.31;4424060;32;19989;-79
2022/03/03 01:40:54;;;;;;;;;;;;;;;0.71;59.21;99955.84;4437097;32;20000;-79
2022/03/03 01:43:19;;;;;;;;;;;;;;;0.62;59.21;99955.75;4437307;32;35026;-79
2022/03/03 01:45:45;;;;;;;;;;;;;;;0.76;59.22;99954.19;4436858;32;19982;-79
2022/03/03 01:48:10;;;;;;;;;;;;;;;0.77;59.22;99953.34;4438232;32;19981;-79
2022/03/03 01:50:35;;;;;;;;;;;;;;;0.87;59.23;99947.47;4436369;32;19996;-81
2022/03/03 01:53:00;;;;;;;;;;;;;;;0.46;59.21;99948.72;4437533;32;33788;-80
2022/03/03 01:55:26;;;;;;;;;;;;;;;0.69;59.22;99942.16;4437235;32;32171;-81
2022/03/03 01:57:51;;;;;;;;;;;;;;;0.70;59.22;99945.56;4437000;32;19993;-80
2022/03/03 02:00:16;;;;;;;;;;;;;;;0.71;59.22;99934.47;4437003;32;20037;-80
2022/03/03 02:02:42;;;;;;;;;;;;;;;0.64;59.21;99945.50;4438576;32;20007;-80
2022/03/03 02:05:07;;;;;;;;;;;;;;;0.61;59.21;99938.66;4439200;32;28068;-80
2022/03/03 02:07:33;;;;;;;;;;;;;;;0.56;59.21;99940.31;4438767;32;19996;-80
2022/03/03 02:09:58;;;;;;;;;;;;;;;0.43;59.20;99938.44;4438511;32;20299;-80
2022/03/03 02:12:23;;;;;;;;;;;;;;;0.42;59.20;99940.13;4437798;32;29627;-80
2022/03/03 02:14:49;;;;;;;;;;;;;;;0.53;59.21;99933.44;4438536;32;20305;-79
2022/03/03 02:17:14;;;;;;;;;;;;;;;0.43;59.20;99929.03;4439973;32;19981;-79
2022/03/03 02:19:40;;;;;;;;;;;;;;;0.18;59.19;99929.59;4438500;32;20323;-79
2022/03/03 02:22:06;;;;;;;;;;;;;;;0.34;59.20;99918.72;4439785;32;19996;-80
2022/03/03 02:24:31;;;;;;;;;;;;;;;0.40;59.20;99923.91;4439821;32;19981;-80
2022/03/03 02:26:56;;;;;;;;;;;;;;;0.38;59.20;99917.03;4438586;32;19981;-80
2022/03/03 02:29:22;;;;;;;;;;;;;;;0.25;59.19;99922.03;4425520;32;19976;-80
2022/03/03 02:31:48;;;;;;;;;;;;;;;0.18;59.19;99917.66;4439701;32;19993;-79
2022/03/03 02:34:13;;;;;;;;;;;;;;;0.05;59.18;99925.19;4439833;32;19981;-81
2022/03/03 02:36:38;;;;;;;;;;;;;;;-0.04;59.18;99920.78;4425603;32;20034;-81
2022/03/03 02:39:04;;;;;;;;;;;;;;;-0.01;59.17;99920.81;4452760;32;30758;-80
2022/03/03 02:41:29;;;;;;;;;;;;;;;0.01;59.17;99910.63;4455102;32;20249;-80
2022/03/03 02:43:54;;;;;;;;;;;;;;;-0.20;59.16;99922.28;4454782;32;19981;-80
2022/03/03 02:46:20;;;;;;;;;;;;;;;-0.22;59.15;99923.13;4441074;32;20000;-80
2022/03/03 02:48:45;;;;;;;;;;;;;;;-0.24;59.16;99923.06;4440811;32;19993;-81
2022/03/03 02:51:10;;;;;;;;;;;;;;;-0.20;59.17;99918.88;4455261;32;19988;-81
2022/03/03 02:53:36;;;;;;;;;;;;;;;-0.13;59.17;99915.56;4428036;32;19988;-81
2022/03/03 02:56:02;;;;;;;;;;;;;;;-0.18;59.16;99912.94;4441000;32;19989;-81
2022/03/03 02:58:27;;;;;;;;;;;;;;;-0.11;59.17;99908.75;4440825;32;19969;-81
2022/03/03 03:00:52;;;;;;;;;;;;;;;-0.26;59.16;99909.37;4439891;32;31712;-81
2022/03/03 03:03:18;;;;;;;;;;;;;;;-0.18;59.16;99906.97;4440888;32;20012;-81
2022/03/03 03:05:43;;;;;;;;;;;;;;;-0.30;59.15;99902.53;4454950;32;20009;-80
2022/03/03 03:08:09;;;;;;;;;;;;;;;-0.13;59.17;99903.63;4440745;32;20005;-79
2022/03/03 03:10:34;;;;;;;;;;;;;;;-0.24;59.16;99904.28;4440730;32;20245;-80
2022/03/03 03:12:59;;;;;;;;;;;;;;;-0.30;59.15;99907.63;4439821;32;20004;-80
2022/03/03 03:15:24;;;;;;;;;;;;;;;-0.54;59.14;99915.81;4440664;32;19993;-80
2022/03/03 03:17:50;;;;;;;;;;;;;;;-0.56;59.14;99912.38;4440639;32;19973;-81
2022/03/03 03:20:15;;;;;;;;;;;;;;;-0.65;59.14;99915.66;4436241;32;20263;-80
2022/03/03 03:22:40;;;;;;;;;;;;;;;-0.56;59.14;99906.41;4433847;32;24547;-80
2022/03/03 03:25:07;;;;;;;;;;;;;;;-0.61;59.13;99908.87;4454509;32;20344;-80
2022/03/03 03:27:33;;;;;;;;;;;;;;;-0.63;59.14;99913.97;4455006;32;20000;-80
2022/03/03 03:29:58;;;;;;;;;;;;;;;-0.44;59.14;99907.47;4442336;32;20028;-80
2022/03/03 03:32:23;;;;;;;;;;;;;;;-0.32;59.16;99910.16;4425353;32;20082;-80
2022/03/03 03:34:48;;;;;;;;;;;;;;;-0.39;59.15;99903.25;4425489;32;19994;-80
2022/03/03 03:37:14;;;;;;;;;;;;;;;-0.48;59.14;99910.78;4438948;32;19981;-80
2022/03/03 03:39:39;;;;;;;;;;;;;;;-0.66;59.13;99919.06;4439295;32;20354;-80
2022/03/03 03:42:04;;;;;;;;;;;;;;;-0.85;59.13;99921.28;4424170;32;31757;-80
2022/03/03 03:44:29;;;;;;;;;;;;;;;-0.76;59.13;99906.09;4439229;32;19989;-80
2022/03/03 03:46:55;;;;;;;;;;;;;;;-0.54;59.14;99907.28;4439143;32;19977;-80
2022/03/03 03:49:20;;;;;;;;;;;;;;;-0.81;59.13;99910.28;4424308;32;33895;-80
2022/03/03 03:51:45;;;;;;;;;;;;;;;-0.76;59.13;99913.75;4439194;32;20017;-80
2022/03/03 03:54:10;;;;;;;;;;;;;;;-0.89;59.12;99917.81;4438839;32;20251;-80
2022/03/03 03:56:35;;;;;;;;;;;;;;;-0.68;59.14;99919.88;4424156;32;35156;-80
2022/03/03 03:59:01;;;;;;;;;;;;;;;-0.57;59.15;99913.22;4424814;32;20282;-80
2022/03/03 04:01:27;;;;;;;;;;;;;;;-0.71;59.14;99925.78;4438304;32;30639;-80
2022/03/03 04:03:52;;;;;;;;;;;;;;;-0.58;59.14;99910.63;4439140;32;20008;-80
2022/03/03 04:06:17;;;;;;;;;;;;;;;-0.62;59.14;99914.84;4424972;32;19992;-80
2022/03/03 04:08:43;;;;;;;;;;;;;;;-0.52;59.14;99903.91;4438377;32;32829;-80
2022/03/03 04:11:08;;;;;;;;;;;;;;;-0.63;59.14;99906.31;4438368;32;29252;-80
2022/03/03 04:13:33;;;;;;;;;;;;;;;-0.66;59.13;99910.53;4424469;32;24977;-80
2022/03/03 04:15:58;;;;;;;;;;;;;;;-0.63;59.14;99908.87;4438640;32;20013;-81
2022/03/03 04:18:24;;;;;;;;;;;;;;;-0.62;59.14;99902.06;4424878;32;20047;-81
2022/03/03 04:20:49;;;;;;;;;;;;;;;-0.66;59.13;99900.31;4416720;32;20012;-80
2022/03/03 04:23:17;;;;;;;;;;;;;;;-0.72;59.14;99903.59;4435128;32;35012;-81
2022/03/03 04:25:42;;;;;;;;;;;;;;;-0.70;59.13;99898.53;4439038;32;20337;-80
2022/03/03 04:28:07;;;;;;;;;;;;;;;-0.77;59.13;99900.13;4412100;32;20045;-80
2022/03/03 04:30:32;;;;;;;;;;;;;;;-0.67;59.13;99898.59;4438204;32;35264;-80
2022/03/03 04:32:58;;;;;;;;;;;;;;;-0.70;59.13;99896.84;4438667;32;20365;-80
2022/03/03 04:35:23;;;;;;;;;;;;;;;-0.80;59.12;99894.09;4438626;32;21657;-80
2022/03/03 04:37:48;;;;;;;;;;;;;;;-0.91;59.12;99896.50;4438887;32;20289;-80
2022/03/03 04:40:13;;;;;;;;;;;;;;;-0.96;59.11;99882.75;4427912;32;20368;-80
2022/03/03 04:42:39;;;;;;;;;;;;;;;-0.88;59.12;99883.75;4424474;32;19997;-80
2022/03/03 04:45:04;;;;;;;;;;;;;;;-0.94;59.12;99884.53;4411956;32;20008;-80
2022/03/03 04:47:29;;;;;;;;;;;;;;;-0.86;59.12;99894.00;4438933;32;20334;-80
2022/03/03 04:49:54;;;;;;;;;;;;;;;-0.83;59.12;99896.59;4438764;32;20348;-80
2022/03/03 04:52:20;;;;;;;;;;;;;;;-0.93;59.12;99898.16;4437778;32;33182;-79
2022/03/03 04:54:45;;;;;;;;;;;;;;;-1.04;59.11;99890.31;4438762;32;19996;-79
2022/03/03 04:57:10;;;;;;;;;;;;;;;-0.96;59.11;99895.53;4424488;32;19989;-80
2022/03/03 04:59:35;;;;;;;;;;;;;;;-1.04;59.11;99895.41;4438587;32;19978;-80
2022/03/03 05:02:01;;;;;;;;;;;;;;;-1.05;59.11;99888.59;4438653;32;20258;-80
2022/03/03 05:04:26;;;;;;;;;;;;;;;-1.44;59.08;99895.53;4438510;32;19969;-80
2022/03/03 05:06:51;;;;;;;;;;;;;;;-0.96;59.11;99883.62;4424404;32;19974;-80
2022/03/03 05:09:16;;;;;;;;;;;;;;;-1.39;59.09;99889.72;4424365;32;20000;-81
2022/03/03 05:11:42;;;;;;;;;;;;;;;-1.25;59.09;99887.37;4438500;32;20329;-82
2022/03/03 05:14:07;;;;;;;;;;;;;;;-1.07;59.11;99887.69;4438168;32;19990;-79
2022/03/03 05:16:33;;;;;;;;;;;;;;;-1.26;59.09;99886.53;4424086;32;19996;-80
2022/03/03 05:18:58;;;;;;;;;;;;;;;-1.26;59.10;99886.53;4430892;32;19966;-80
2022/03/03 05:21:23;;;;;;;;;;;;;;;-1.34;59.09;99890.66;4424193;32;29522;-82
2022/03/03 05:23:48;;;;;;;;;;;;;;;-1.47;59.08;99895.50;4399202;32;19981;-82
2022/03/03 05:26:13;;;;;;;;;;;;;;;-1.28;59.10;99892.44;4415373;32;20066;-83
2022/03/03 05:28:39;;;;;;;;;;;;;;;-1.26;59.09;99886.53;4416670;32;19994;-83
2022/03/03 05:31:04;;;;;;;;;;;;;;;-1.17;59.10;99883.28;4419850;32;19993;-82
2022/03/03 05:33:30;;;;;;;;;;;;;;;-1.41;59.09;99893.06;4406733;32;22854;-85
2022/03/03 05:35:57;;;;;;;;;;;;;;;-1.21;59.11;99893.41;4399873;32;20004;-84
2022/03/03 05:38:23;;;;;;;;;;;;;;;-1.36;59.10;99894.87;4408948;32;19986;-84
2022/03/03 05:40:48;;;;;;;;;;;;;;;-1.15;59.11;99894.37;4411164;32;20032;-83
2022/03/03 05:43:14;;;;;;;;;;;;;;;-1.06;59.11;99886.00;4420806;32;25907;-84
2022/03/03 05:45:39;;;;;;;;;;;;;;;-1.14;59.11;99885.03;4421741;32;20283;-83
2022/03/03 05:48:04;;;;;;;;;;;;;;;-1.19;59.11;99886.63;4422389;32;20036;-83
2022/03/03 05:50:29;;;;;;;;;;;;;;;-1.20;59.10;99888.31;4421130;32;19992;-85
2022/03/03 05:52:55;;;;;;;;;;;;;;;-1.17;59.10;99883.28;4407695;32;28916;-86
2022/03/03 05:55:20;;;;;;;;;;;;;;;-1.06;59.11;99881.75;4422558;32;19981;-85
2022/03/03 05:57:45;;;;;;;;;;;;;;;-0.97;59.11;99887.00;4421115;32;20077;-85
2022/03/03 06:00:12;;;;;;;;;;;;;;;-0.89;59.12;99888.84;4421182;32;19998;-86
2022/03/03 06:02:37;;;;;;;;;;;;;;;-1.05;59.11;99883.47;4420682;32;19985;-85
2022/03/03 06:05:02;;;;;;;;;;;;;;;-0.73;59.12;99891.66;4420858;32;19994;-86
2022/03/03 06:07:28;;;;;;;;;;;;;;;-0.79;59.13;99891.56;4421007;32;20250;-86
2022/03/03 06:09:57;;;;;;;;;;;;;;;-0.58;59.14;99893.59;4420848;32;20048;-86
2022/03/03 06:12:24;;;;;;;;;;;;;;;-0.77;59.13;99900.13;4415498;32;20033;-85
2022/03/03 06:14:51;;;;;;;;;;;;;;;-0.47;59.14;99897.19;4422200;32;20040;-86
2022/03/03 06:17:17;;;;;;;;;;;;;;;-0.40;59.15;99893.00;4421141;32;20039;-86
2022/03/03 06:19:42;;;;;;;;;;;;;;;-0.46;59.14;99885.25;4408033;32;19986;-86
2022/03/03 06:22:07;;;;;;;;;;;;;;;-0.43;59.15;99890.41;4411066;32;19974;-86
2022/03/03 06:24:33;;;;;;;;;;;;;;;-0.27;59.16;99883.78;4413433;32;19974;-86
2022/03/03 06:26:58;;;;;;;;;;;;;;;-0.25;59.16;99882.13;4422107;32;20326;-86
2022/03/03 06:29:23;;;;;;;;;;;;;;;-0.08;59.17;99880.66;4420953;32;20067;-86
2022/03/03 06:31:49;;;;;;;;;;;;;;;0.08;59.17;99886.81;4422335;32;20011;-85
2022/03/03 06:34:14;;;;;;;;;;;;;;;0.13;59.18;99882.62;4422341;32;19982;-85
2022/03/03 06:36:39;;;;;;;;;;;;;;;0.32;59.19;99882.00;4407212;32;34792;-86
2022/03/03 06:39:04;;;;;;;;;;;;;;;0.44;59.20;99889.78;4421605;32;19993;-86
2022/03/03 06:41:30;;;;;;;;;;;;;;;0.49;59.20;99885.59;4422794;32;27159;-85
2022/03/03 06:43:56;;;;;;;;;;;;;;;0.62;59.21;99894.25;4423517;32;19998;-86
2022/03/03 06:46:21;;;;;;;;;;;;;;;0.66;59.22;99898.56;4436603;32;20301;-86
2022/03/03 06:48:47;;;;;;;;;;;;;;;0.61;59.21;99905.34;4438367;32;20093;-86
2022/03/03 06:51:12;;;;;;;;;;;;;;;0.81;59.21;99901.28;4438381;32;19997;-85
2022/03/03 06:53:39;;;;;;;;;;;;;;;0.81;59.21;99895.31;4438089;32;19970;-86
2022/03/03 06:56:05;;;;;;;;;;;;;;;0.82;59.22;99899.59;4425659;32;20009;-86
2022/03/03 06:58:31;;;;;;;;;;;;;;;1.06;59.23;99896.38;4425488;32;20006;-86
2022/03/03 07:00:56;;;;;;;;;;;;;;;1.26;59.25;99894.84;4438064;32;19969;-86
2022/03/03 07:03:22;;;;;;;;;;;;;;;1.09;59.23;99897.25;4438120;32;20052;-86
2022/03/03 07:05:47;;;;;;;;;;;;;;;1.13;59.24;99890.47;4425267;32;20025;-86
2022/03/03 07:08:13;;;;;;;;;;;;;;;1.30;59.25;99893.16;4438334;32;19986;-86
2022/03/03 07:10:39;;;;;;;;;;;;;;;1.53;59.26;99900.19;4439352;32;19961;-85
2022/03/03 07:13:04;;;;;;;;;;;;;;;1.66;59.27;99895.13;4425351;32;19974;-85
2022/03/03 07:15:29;;;;;;;;;;;;;;;1.82;59.27;99886.66;4424360;32;29317;-86
2022/03/03 07:18:08;;;;;;;;;;;;;;;2.07;59.29;99891.06;4439415;32;20003;-86
2022/03/03 07:20:37;;;;;;;;;;;;;;;2.13;59.31;99896.25;4434288;32;19988;-85
2022/03/03 07:23:07;;;;;;;;;;;;;;;2.60;59.33;99884.38;4439278;32;19969;-86
2022/03/03 07:25:46;;;;;;;;;;;;;;;2.28;59.31;99895.44;4438237;32;20058;-86
2022/03/03 07:28:12;;;;;;;;;;;;;;;2.53;59.32;99883.50;4438134;32;19993;-85
2022/03/03 07:30:41;;;;;;;;;;;;;;;2.73;59.34;99888.69;4425228;32;20008;-86
2022/03/03 07:33:07;;;;;;;;;;;;;;;2.91;59.34;99883.59;4425301;32;20313;-86
2022/03/03 07:35:33;;;;;;;;;;;;;;;2.91;59.34;99885.31;4437961;32;20036;-86
2022/03/03 07:38:03;;;;;;;;;;;;;;;3.27;59.36;99877.59;4437916;32;20042;-86
2022/03/03 07:40:29;;;;;;;;;;;;;;;3.21;59.36;99880.16;4425247;32;20035;-86
2022/03/03 07:42:54;;;;;;;;;;;;;;;3.54;59.38;99873.25;4439375;32;20060;-85
2022/03/03 07:45:19;;;;;;;;;;;;;;;3.68;59.39;99872.41;4439319;32;20020;-85
2022/03/03 07:47:44;;;;;;;;;;;;;;;3.74;59.38;99866.38;4438875;32;25271;-86
2022/03/03 07:50:10;;;;;;;;;;;;;;;3.82;59.39;99858.63;4437043;32;29804;-86
2022/03/03 07:52:35;;;;;;;;;;;;;;;3.98;59.41;99856.00;4437922;32;20317;-85
2022/03/03 07:55:01;;;;;;;;;;;;;;;4.03;59.41;99855.13;4431131;32;20009;-86
2022/03/03 07:57:30;;;;;;;;;;;;;;;4.43;59.44;99855.78;4424811;32;19992;-86
2022/03/03 07:59:57;;;;;;;;;;;;;;;4.58;59.44;99846.25;4412045;32;19969;-86
2022/03/03 08:02:23;;;;;;;;;;;;;;;4.48;59.43;99849.72;4412299;32;19996;-86
2022/03/03 08:04:49;;;;;;;;;;;;;;;4.72;59.45;99850.44;4424865;32;19997;-85
2022/03/03 08:07:15;;;;;;;;;;;;;;;5.00;59.46;99841.66;4424828;32;20338;-86
2022/03/03 08:09:40;;;;;;;;;;;;;;;5.06;59.47;99846.78;4439127;32;19985;-85
2022/03/03 08:12:05;;;;;;;;;;;;;;;5.04;59.47;99848.50;4412199;32;20313;-85
2022/03/03 08:14:33;;;;;;;;;;;;;;;5.10;59.47;99850.19;4439077;32;19977;-85
2022/03/03 08:16:58;;;;;;;;;;;;;;;5.25;59.48;99847.47;4425150;32;20028;-85
2022/03/03 08:19:24;;;;;;;;;;;;;;;5.28;59.48;99847.44;4411210;32;28863;-85
2022/03/03 08:21:49;;;;;;;;;;;;;;;5.61;59.50;99843.66;4424808;32;19958;-85
2022/03/03 08:24:15;;;;;;;;;;;;;;;5.59;59.49;99834.22;4437781;32;20008;-85
2022/03/03 08:26:41;;;;;;;;;;;;;;;5.82;59.50;99827.09;4424549;32;20085;-85
2022/03/03 08:29:07;;;;;;;;;;;;;;;5.98;59.52;99826.06;4425005;32;20064;-85
2022/03/03 08:31:34;;;;;;;;;;;;;;;6.14;59.53;99824.13;4437669;32;20603;-85
2022/03/03 08:34:10;;;;;;;;;;;;;;;6.33;59.53;99817.84;4437765;32;20247;-85
2022/03/03 08:36:45;;;;;;;;;;;;;;;6.32;59.53;99816.13;4437804;32;19985;-85
2022/03/03 08:39:10;;;;;;;;;;;;;;;6.51;59.55;99824.50;4437412;32;19988;-85
2022/03/03 08:41:36;;;;;;;;;;;;;;;6.77;59.56;99819.78;4424617;32;19969;-86
2022/03/03 08:44:02;;;;;;;;;;;;;;;7.18;59.59;99815.69;4437587;32;20002;-86
2022/03/03 08:46:27;;;;;;;;;;;;;;;7.24;59.59;99809.53;4438934;32;20322;-86
2022/03/03 08:48:53;;;;;;;;;;;;;;;7.57;59.61;99808.06;4437354;32;20031;-86
2022/03/03 08:51:19;;;;;;;;;;;;;;;7.69;59.62;99808.69;4437783;32;19979;-86
2022/03/03 08:53:45;;;;;;;;;;;;;;;7.83;59.62;99797.22;4438980;32;19989;-86
2022/03/03 08:56:10;;;;;;;;;;;;;;;7.94;59.63;99790.06;4437692;32;19997;-86
2022/03/03 08:58:35;;;;;;;;;;;;;;;8.16;59.64;99795.66;4438158;32;27788;-86
2022/03/03 09:01:01;;;;;;;;;;;;;;;8.20;59.64;99795.53;4437380;32;19992;-86
2022/03/03 09:03:26;;;;;;;;;;;;;;;8.19;59.64;99805.97;4430692;32;23112;-86
2022/03/03 09:05:51;;;;;;;;;;;;;;;8.30;59.65;99801.41;4438771;32;19990;-86
2022/03/03 09:08:16;;;;;;;;;;;;;;;8.31;59.65;99795.34;4437344;32;20039;-86
2022/03/03 09:10:42;;;;;;;;;;;;;;;8.53;59.67;99800.94;4436253;32;20282;-85
2022/03/03 09:13:07;;;;;;;;;;;;;;;8.59;59.67;99809.41;4436699;32;32430;-85
2022/03/03 09:15:33;;;;;;;;;;;;;;;8.55;59.66;99805.19;4438472;32;20035;-86
2022/03/03 09:17:59;;;;;;;;;;;;;;;8.53;59.66;99808.72;4437311;32;19973;-86
2022/03/03 09:20:24;;;;;;;;;;;;;;;8.61;59.67;99793.81;4434336;32;20345;-86
2022/03/03 09:22:49;;;;;;;;;;;;;;;8.65;59.67;99800.63;4423959;32;21741;-86
2022/03/03 09:25:14;;;;;;;;;;;;;;;8.87;59.68;99809.63;4437047;32;20009;-86
2022/03/03 09:27:40;;;;;;;;;;;;;;;8.91;59.69;99808.66;4438573;32;19981;-87
2022/03/03 09:30:05;;;;;;;;;;;;;;;8.80;59.67;99804.63;4438420;32;20257;-86
2022/03/03 09:32:31;;;;;;;;;;;;;;;8.92;59.69;99801.72;4437238;32;20043;-86
2022/03/03 09:34:56;;;;;;;;;;;;;;;8.97;59.69;99796.41;4438403;32;20338;-86
2022/03/03 09:37:22;;;;;;;;;;;;;;;9.00;59.68;99794.59;4423646;32;28363;-87
2022/03/03 09:39:49;;;;;;;;;;;;;;;9.19;59.70;99794.97;4437184;32;20002;-87
2022/03/03 09:42:14;;;;;;;;;;;;;;;9.26;59.70;99798.28;4424272;32;19990;-86
2022/03/03 09:44:40;;;;;;;;;;;;;;;9.25;59.70;99793.97;4437781;32;30873;-86
2022/03/03 09:47:05;;;;;;;;;;;;;;;9.53;59.72;99785.41;4438270;32;20021;-87
2022/03/03 09:49:30;;;;;;;;;;;;;;;9.74;59.73;99781.38;4438402;32;19978;-86
2022/03/03 09:51:55;;;;;;;;;;;;;;;9.73;59.73;99789.22;4437005;32;19990;-86
2022/03/03 09:54:21;;;;;;;;;;;;;;;9.85;59.73;99781.06;4437206;32;20001;-86
2022/03/03 09:56:46;;;;;;;;;;;;;;;9.92;59.74;99781.72;4436992;32;20303;-87
2022/03/03 09:59:11;;;;;;;;;;;;;;;10.05;59.75;99777.88;4438110;32;19988;-86
2022/03/03 10:01:36;;;;;;;;;;;;;;;10.10;59.75;99779.44;4423964;32;20038;-86
2022/03/03 10:04:20;;;;;;;;;;;;;;;9.85;59.73;99776.72;4423715;32;19989;-86
2022/03/03 10:06:46;;;;;;;;;;;;;;;10.05;59.75;99772.69;4436637;32;20383;-86
2022/03/03 10:09:11;;;;;;;;;;;;;;;10.26;59.76;99776.44;4437978;32;20024;-86
2022/03/03 10:11:40;;;;;;;;;;;;;;;10.38;59.76;99773.44;4438127;32;20044;-86
2022/03/03 10:14:05;;;;;;;;;;;;;;;10.46;59.76;99768.88;4436532;32;20004;-86
2022/03/03 10:16:31;;;;;;;;;;;;;;;10.44;59.77;99771.53;4436710;32;20297;-86
2022/03/03 10:19:04;;;;;;;;;;;;;;;10.56;59.78;99774.63;4437905;32;19969;-86
2022/03/03 10:21:30;;;;;;;;;;;;;;;10.50;59.78;99775.69;4427436;32;19994;-86
2022/03/03 10:23:56;;;;;;;;;;;;;;;10.50;59.77;99769.62;4425855;32;20378;-86
2022/03/03 10:26:21;;;;;;;;;;;;;;;10.51;59.77;99769.56;4438541;32;20007;-85
2022/03/03 10:28:49;;;;;;;;;;;;;;;10.68;59.79;99775.09;4438488;32;20012;-86
2022/03/03 10:31:18;;;;;;;;;;;;;;;10.61;59.77;99764.91;4439879;32;19995;-85
2022/03/03 10:33:44;;;;;;;;;;;;;;;10.68;59.79;99764.69;4437254;32;20045;-86
2022/03/03 10:36:11;;;;;;;;;;;;;;;10.67;59.78;99762.13;4425616;32;20362;-86
2022/03/03 10:38:55;;;;;;;;;;;;;;;10.62;59.79;99759.66;4438291;32;19980;-85
2022/03/03 10:41:30;;;;;;;;;;;;;;;10.80;59.79;99758.22;4438371;32;19989;-86
2022/03/03 10:43:56;;;;;;;;;;;;;;;10.94;59.80;99750.81;4439831;32;19985;-86
2022/03/03 10:46:21;;;;;;;;;;;;;;;11.28;59.82;99744.44;4438439;32;20023;-85
2022/03/03 10:48:46;;;;;;;;;;;;;;;11.15;59.82;99745.78;4425550;32;20032;-86
2022/03/03 10:51:15;;;;;;;;;;;;;;;11.18;59.81;99743.91;4424770;32;33428;-86
2022/03/03 10:53:42;;;;;;;;;;;;;;;11.14;59.82;99742.31;4438412;32;20004;-86
2022/03/03 10:56:08;;;;;;;;;;;;;;;11.28;59.82;99732.25;4439678;32;19993;-87
2022/03/03 10:58:53;;;;;;;;;;;;;;;11.55;59.83;99726.97;4425527;32;19996;-85
2022/03/03 11:01:19;;;;;;;;;;;;;;;11.77;59.85;99733.09;4416363;32;20044;-86
2022/03/03 11:03:49;;;;;;;;;;;;;;;11.94;59.85;99725.53;4439649;32;20054;-86
2022/03/03 11:06:22;;;;;;;;;;;;;;;12.12;59.85;99723.97;4438368;32;20030;-86
2022/03/03 11:08:47;;;;;;;;;;;;;;;12.28;59.88;99719.00;4438356;32;20041;-86
2022/03/03 11:11:13;;;;;;;;;;;;;;;12.49;59.88;99715.53;4438145;32;19989;-86
2022/03/03 11:13:38;;;;;;;;;;;;;;;12.67;59.90;99708.72;4439654;32;19992;-86
2022/03/03 11:16:03;;;;;;;;;;;;;;;12.73;59.90;99699.78;4438164;32;19977;-87
2022/03/03 11:18:29;;;;;;;;;;;;;;;12.96;59.92;99691.81;4425421;32;20000;-86
2022/03/03 11:20:54;;;;;;;;;;;;;;;12.98;59.92;99682.16;4431599;32;19989;-86
2022/03/03 11:23:20;;;;;;;;;;;;;;;13.05;59.92;99691.44;4437595;32;19997;-86
2022/03/03 11:25:46;;;;;;;;;;;;;;;13.25;59.92;99689.75;4425361;32;19990;-87
2022/03/03 11:28:14;;;;;;;;;;;;;;;13.36;59.93;99690.97;4439314;32;20323;-86
2022/03/03 11:30:40;;;;;;;;;;;;;;;13.24;59.92;99688.03;4425879;32;19986;-86
2022/03/03 11:33:17;;;;;;;;;;;;;;;13.20;59.93;99687.34;4437422;32;19985;-87
2022/03/03 11:35:49;;;;;;;;;;;;;;;13.26;59.93;99681.00;4429451;32;19977;-86
2022/03/03 11:38:15;;;;;;;;;;;;;;;13.04;59.92;99679.28;4438098;32;20043;-86
2022/03/03 11:40:57;;;;;;;;;;;;;;;13.34;59.93;99673.66;4438181;32;20019;-86
2022/03/03 11:43:22;;;;;;;;;;;;;;;13.53;59.94;99669.31;4437988;32;19997;-86
2022/03/03 11:45:52;;;;;;;;;;;;;;;13.56;59.95;99661.31;4437939;32;19973;-86
2022/03/03 11:48:20;;;;;;;;;;;;;;;13.54;59.94;99659.69;4425094;32;19982;-86
2022/03/03 11:50:46;;;;;;;;;;;;;;;13.39;59.93;99662.09;4437951;32;19989;-86
2022/03/03 11:53:11;;;;;;;;;;;;;;;13.33;59.93;99651.06;4438156;32;20421;-86
2022/03/03 11:55:47;;;;;;;;;;;;;;;13.53;59.94;99645.78;4439232;32;19982;-86
2022/03/03 11:58:13;;;;;;;;;;;;;;;13.78;59.95;99646.34;4438016;32;19995;-86
2022/03/03 12:00:45;;;;;;;;;;;;;;;14.00;59.97;99640.94;4437840;32;20335;-86
2022/03/03 12:03:11;;;;;;;;;;;;;;;13.96;59.97;99638.53;4438057;32;20004;-86
2022/03/03 12:05:36;;;;;;;;;;;;;;;13.80;59.96;99643.66;4437999;32;19970;-86
2022/03/03 12:08:03;;;;;;;;;;;;;;;13.49;59.95;99644.22;4439243;32;19997;-86
2022/03/03 12:10:28;;;;;;;;;;;;;;;13.47;59.93;99640.81;4439179;32;20030;-86
2022/03/03 12:13:12;;;;;;;;;;;;;;;13.57;59.95;99641.25;4439053;32;19977;-86
2022/03/03 12:15:38;;;;;;;;;;;;;;;13.38;59.94;99636.84;4437895;32;19992;-86
2022/03/03 12:18:03;;;;;;;;;;;;;;;13.35;59.93;99629.16;4437875;32;19996;-86
2022/03/03 12:20:31;;;;;;;;;;;;;;;13.31;59.93;99627.59;4438701;32;20040;-87
2022/03/03 12:23:03;;;;;;;;;;;;;;;13.21;59.92;99613.22;4424812;32;20349;-86
2022/03/03 12:25:47;;;;;;;;;;;;;;;13.16;59.92;99620.41;4434952;32;19998;-86
2022/03/03 12:28:15;;;;;;;;;;;;;;;12.88;59.92;99615.56;4434092;32;19988;-86
2022/03/03 12:30:44;;;;;;;;;;;;;;;12.57;59.89;99621.25;4438020;32;19997;-87
2022/03/03 12:33:10;;;;;;;;;;;;;;;12.34;59.88;99626.56;4439259;32;19992;-86
2022/03/03 12:35:35;;;;;;;;;;;;;;;12.55;59.89;99625.69;4437480;32;19989;-86
2022/03/03 12:38:00;;;;;;;;;;;;;;;12.48;59.89;99622.47;4437107;32;27530;-86
2022/03/03 12:40:28;;;;;;;;;;;;;;;12.61;59.90;99625.41;4413572;32;19977;-87
2022/03/03 12:42:54;;;;;;;;;;;;;;;12.69;59.90;99625.09;4437612;32;19989;-86
2022/03/03 12:45:19;;;;;;;;;;;;;;;12.59;59.90;99619.41;4437379;32;19996;-86